Airport View

Enter AWOS ICAO identifier for current METAR.

ex. KFNL

KGEV 280150Z AUTO 00000KT 10SM SCT019 15/15 A3003 RMK AO2 T01540151

28 Sep 2020 01:59

Frequency: 120.675

Phone: 336-982-5555

Other Area AWOS: KTNB - KUKF - KMKJ - KVJI

TAF KHKY 272342Z 2800/2824 19004KT P6SM SCT050 FM280400 20003KT 6SM BR SCT008 BKN015 TEMPO 2807/2811 1SM BR BKN003 FM281100 20004KT P6SM BKN008 FM281500 19006KT P6SM SCT020 BKN040 PROB30 2818/2824 4SM -SHRA BR OVC010